Montezuma, Ohio
Current Conditions -  °F | °C
As of 4:33 PM on Saturday 22 Nov 2014 (Local Time) from KAXV Reporting Station
Overcast Overcast  
Wind Chill: 50°   Ceiling: 7000
Heat Index: 50°   Visibility: 10mi
Dew Point: 41°   Wind: 12mph
Humidity: 71%   Direction: 190°S
Pressure: 30.05"   Gusts: NA
Location:  40.49°N, 84.55°W
Report Text: KAXV 222133Z AUTO 19010KT 10SM SCT045 BKN070 OVC080 10/05 A3005 RMK AO2
Loading
Personal Weather Stations






























Interactive Weather Map New forecast layout! Learn more

10-Day Weather Forecast

Advertisements
Track Severe Weather on mobile